sensor_id;sensor_type;location;lat;lon;timestamp;temperature;humidity
2851;DHT22;1433;49.976;8.342;2023-05-19T00:01:44;10.90;99.90
2851;DHT22;1433;49.976;8.342;2023-05-19T00:04:13;10.90;1.00
2851;DHT22;1433;49.976;8.342;2023-05-19T00:06:40;10.80;99.90
2851;DHT22;1433;49.976;8.342;2023-05-19T00:09:08;10.80;99.90
2851;DHT22;1433;49.976;8.342;2023-05-19T00:11:36;10.80;99.90
2851;DHT22;1433;49.976;8.342;2023-05-19T00:14:05;10.80;99.90
2851;DHT22;1433;49.976;8.342;2023-05-19T00:16:33;10.80;99.90
2851;DHT22;1433;49.976;8.342;2023-05-19T00:19:01;10.80;99.90
2851;DHT22;1433;49.976;8.342;2023-05-19T00:21:28;10.70;99.90
2851;DHT22;1433;49.976;8.342;2023-05-19T00:23:56;10.70;99.90
2851;DHT22;1433;49.976;8.342;2023-05-19T00:26:23;10.70;99.90
2851;DHT22;1433;49.976;8.342;2023-05-19T00:28:57;10.70;99.90
2851;DHT22;1433;49.976;8.342;2023-05-19T00:31:23;10.70;1.00
2851;DHT22;1433;49.976;8.342;2023-05-19T00:33:49;10.60;99.90
2851;DHT22;1433;49.976;8.342;2023-05-19T00:36:17;10.60;99.90
2851;DHT22;1433;49.976;8.342;2023-05-19T00:38:43;10.50;99.90
2851;DHT22;1433;49.976;8.342;2023-05-19T00:41:09;10.60;99.90
2851;DHT22;1433;49.976;8.342;2023-05-19T00:43:35;10.60;1.00
2851;DHT22;1433;49.976;8.342;2023-05-19T00:46:02;10.60;99.90
2851;DHT22;1433;49.976;8.342;2023-05-19T00:48:28;10.50;1.00
2851;DHT22;1433;49.976;8.342;2023-05-19T00:50:56;10.50;99.90
2851;DHT22;1433;49.976;8.342;2023-05-19T00:53:30;10.50;1.00
2851;DHT22;1433;49.976;8.342;2023-05-19T00:55:59;10.40;1.00
2851;DHT22;1433;49.976;8.342;2023-05-19T00:58:26;10.40;99.90
2851;DHT22;1433;49.976;8.342;2023-05-19T01:00:58;10.40;99.90
2851;DHT22;1433;49.976;8.342;2023-05-19T01:03:30;10.40;1.00
2851;DHT22;1433;49.976;8.342;2023-05-19T01:05:57;10.30;1.00
2851;DHT22;1433;49.976;8.342;2023-05-19T01:08:26;10.30;1.00
2851;DHT22;1433;49.976;8.342;2023-05-19T01:10:52;10.20;99.90
2851;DHT22;1433;49.976;8.342;2023-05-19T01:13:19;10.20;1.00
2851;DHT22;1433;49.976;8.342;2023-05-19T01:16:10;10.10;1.00
2851;DHT22;1433;49.976;8.342;2023-05-19T01:18:18;10.10;1.00
2851;DHT22;1433;49.976;8.342;2023-05-19T01:23:37;10.00;1.00
2851;DHT22;1433;49.976;8.342;2023-05-19T01:26:15;10.00;1.00
2851;DHT22;1433;49.976;8.342;2023-05-19T01:29:11;9.90;1.00
2851;DHT22;1433;49.976;8.342;2023-05-19T01:31:36;9.90;1.00
2851;DHT22;1433;49.976;8.342;2023-05-19T01:34:05;9.80;1.00
2851;DHT22;1433;49.976;8.342;2023-05-19T01:36:32;9.80;1.00
2851;DHT22;1433;49.976;8.342;2023-05-19T01:38:59;9.70;1.00
2851;DHT22;1433;49.976;8.342;2023-05-19T01:41:27;9.70;1.00
2851;DHT22;1433;49.976;8.342;2023-05-19T01:43:54;9.60;1.00
2851;DHT22;1433;49.976;8.342;2023-05-19T01:46:22;9.60;1.00
2851;DHT22;1433;49.976;8.342;2023-05-19T01:48:51;9.50;1.00
2851;DHT22;1433;49.976;8.342;2023-05-19T01:51:19;9.40;1.00
2851;DHT22;1433;49.976;8.342;2023-05-19T01:53:45;9.40;88.80
2851;DHT22;1433;49.976;8.342;2023-05-19T01:56:14;9.40;99.90
2851;DHT22;1433;49.976;8.342;2023-05-19T01:58:46;9.40;99.90
2851;DHT22;1433;49.976;8.342;2023-05-19T02:01:36;9.40;99.90
2851;DHT22;1433;49.976;8.342;2023-05-19T02:09:44;9.30;99.90
2851;DHT22;1433;49.976;8.342;2023-05-19T02:15:13;9.20;1.00
2851;DHT22;1433;49.976;8.342;2023-05-19T02:17:40;9.20;1.00
2851;DHT22;1433;49.976;8.342;2023-05-19T02:20:09;9.20;1.40
2851;DHT22;1433;49.976;8.342;2023-05-19T02:22:42;9.20;1.00
2851;DHT22;1433;49.976;8.342;2023-05-19T02:25:09;9.20;1.00
2851;DHT22;1433;49.976;8.342;2023-05-19T02:27:37;9.10;99.90
2851;DHT22;1433;49.976;8.342;2023-05-19T02:30:04;9.10;99.90
2851;DHT22;1433;49.976;8.342;2023-05-19T02:32:34;9.10;99.90
2851;DHT22;1433;49.976;8.342;2023-05-19T02:35:02;9.10;99.90
2851;DHT22;1433;49.976;8.342;2023-05-19T02:37:28;9.00;1.00
2851;DHT22;1433;49.976;8.342;2023-05-19T02:39:55;9.00;1.00
2851;DHT22;1433;49.976;8.342;2023-05-19T02:42:22;8.90;1.00
2851;DHT22;1433;49.976;8.342;2023-05-19T02:44:48;8.90;1.00
2851;DHT22;1433;49.976;8.342;2023-05-19T02:47:14;8.90;1.00
2851;DHT22;1433;49.976;8.342;2023-05-19T02:49:40;8.80;60.40
2851;DHT22;1433;49.976;8.342;2023-05-19T02:52:07;8.80;99.90
2851;DHT22;1433;49.976;8.342;2023-05-19T02:54:34;8.90;99.90
2851;DHT22;1433;49.976;8.342;2023-05-19T02:57:01;8.90;99.90
2851;DHT22;1433;49.976;8.342;2023-05-19T02:59:27;8.80;99.90
2851;DHT22;1433;49.976;8.342;2023-05-19T03:01:54;8.70;99.90
2851;DHT22;1433;49.976;8.342;2023-05-19T03:04:21;8.70;95.50
2851;DHT22;1433;49.976;8.342;2023-05-19T03:06:47;8.70;99.90
2851;DHT22;1433;49.976;8.342;2023-05-19T03:09:13;8.70;99.90
2851;DHT22;1433;49.976;8.342;2023-05-19T03:11:40;8.60;99.90
2851;DHT22;1433;49.976;8.342;2023-05-19T03:14:06;8.60;99.90
2851;DHT22;1433;49.976;8.342;2023-05-19T03:16:34;8.60;1.00
2851;DHT22;1433;49.976;8.342;2023-05-19T03:19:00;8.50;1.00
2851;DHT22;1433;49.976;8.342;2023-05-19T03:21:27;8.40;1.00
2851;DHT22;1433;49.976;8.342;2023-05-19T03:23:53;8.40;1.00
2851;DHT22;1433;49.976;8.342;2023-05-19T03:26:20;8.40;1.00
2851;DHT22;1433;49.976;8.342;2023-05-19T03:28:48;8.30;1.00
2851;DHT22;1433;49.976;8.342;2023-05-19T03:31:14;8.30;99.90
2851;DHT22;1433;49.976;8.342;2023-05-19T03:33:41;8.30;99.90
2851;DHT22;1433;49.976;8.342;2023-05-19T03:36:08;8.20;99.90
2851;DHT22;1433;49.976;8.342;2023-05-19T03:38:36;8.20;99.90
2851;DHT22;1433;49.976;8.342;2023-05-19T03:41:03;8.10;99.90
2851;DHT22;1433;49.976;8.342;2023-05-19T03:43:30;8.10;99.90
2851;DHT22;1433;49.976;8.342;2023-05-19T03:45:58;8.10;1.00
2851;DHT22;1433;49.976;8.342;2023-05-19T03:48:43;8.10;1.00
2851;DHT22;1433;49.976;8.342;2023-05-19T03:51:20;8.10;1.00
2851;DHT22;1433;49.976;8.342;2023-05-19T03:53:47;8.10;1.00
2851;DHT22;1433;49.976;8.342;2023-05-19T03:56:13;8.10;1.00
2851;DHT22;1433;49.976;8.342;2023-05-19T03:58:41;8.10;1.00
2851;DHT22;1433;49.976;8.342;2023-05-19T04:01:10;8.10;1.00
2851;DHT22;1433;49.976;8.342;2023-05-19T04:03:36;8.10;1.00
2851;DHT22;1433;49.976;8.342;2023-05-19T04:06:02;8.10;1.00
2851;DHT22;1433;49.976;8.342;2023-05-19T04:08:29;8.10;1.00
2851;DHT22;1433;49.976;8.342;2023-05-19T04:10:55;8.10;1.00
2851;DHT22;1433;49.976;8.342;2023-05-19T04:13:21;8.10;1.00
2851;DHT22;1433;49.976;8.342;2023-05-19T04:15:48;8.10;1.00
2851;DHT22;1433;49.976;8.342;2023-05-19T04:18:14;8.10;1.00
2851;DHT22;1433;49.976;8.342;2023-05-19T04:20:40;8.10;1.00
2851;DHT22;1433;49.976;8.342;2023-05-19T04:23:07;8.10;1.00
2851;DHT22;1433;49.976;8.342;2023-05-19T04:25:34;8.20;1.00
2851;DHT22;1433;49.976;8.342;2023-05-19T04:28:01;8.20;1.00
2851;DHT22;1433;49.976;8.342;2023-05-19T04:30:28;8.10;1.00
2851;DHT22;1433;49.976;8.342;2023-05-19T04:32:55;8.20;1.00
2851;DHT22;1433;49.976;8.342;2023-05-19T04:35:23;8.20;1.00
2851;DHT22;1433;49.976;8.342;2023-05-19T04:37:50;8.30;1.00
2851;DHT22;1433;49.976;8.342;2023-05-19T04:40:23;8.30;1.00
2851;DHT22;1433;49.976;8.342;2023-05-19T04:42:49;8.30;1.00
2851;DHT22;1433;49.976;8.342;2023-05-19T04:45:17;8.30;1.00
2851;DHT22;1433;49.976;8.342;2023-05-19T04:47:45;8.40;1.00
2851;DHT22;1433;49.976;8.342;2023-05-19T04:50:13;8.40;1.00
2851;DHT22;1433;49.976;8.342;2023-05-19T04:52:41;8.50;1.00
2851;DHT22;1433;49.976;8.342;2023-05-19T04:55:09;8.50;1.00
2851;DHT22;1433;49.976;8.342;2023-05-19T04:57:36;8.60;99.90
2851;DHT22;1433;49.976;8.342;2023-05-19T05:00:05;8.70;1.00
2851;DHT22;1433;49.976;8.342;2023-05-19T05:02:35;8.80;1.00
2851;DHT22;1433;49.976;8.342;2023-05-19T05:05:02;8.80;1.00
2851;DHT22;1433;49.976;8.342;2023-05-19T05:07:29;8.90;99.90
2851;DHT22;1433;49.976;8.342;2023-05-19T05:09:55;9.00;1.00
2851;DHT22;1433;49.976;8.342;2023-05-19T05:12:21;9.10;99.90
2851;DHT22;1433;49.976;8.342;2023-05-19T05:14:49;9.20;1.00
2851;DHT22;1433;49.976;8.342;2023-05-19T05:17:18;9.30;1.00
2851;DHT22;1433;49.976;8.342;2023-05-19T05:19:45;9.40;99.90
2851;DHT22;1433;49.976;8.342;2023-05-19T05:22:12;9.50;57.60
2851;DHT22;1433;49.976;8.342;2023-05-19T05:24:39;9.60;99.90
2851;DHT22;1433;49.976;8.342;2023-05-19T05:27:05;9.60;1.00
2851;DHT22;1433;49.976;8.342;2023-05-19T05:29:33;9.80;99.90
2851;DHT22;1433;49.976;8.342;2023-05-19T05:32:00;9.90;39.50
2851;DHT22;1433;49.976;8.342;2023-05-19T05:34:27;10.00;1.00
2851;DHT22;1433;49.976;8.342;2023-05-19T05:36:54;10.10;1.00
2851;DHT22;1433;49.976;8.342;2023-05-19T05:39:21;10.20;1.00
2851;DHT22;1433;49.976;8.342;2023-05-19T05:41:48;10.30;1.00
2851;DHT22;1433;49.976;8.342;2023-05-19T05:44:15;10.40;1.00
2851;DHT22;1433;49.976;8.342;2023-05-19T05:46:43;10.50;1.00
2851;DHT22;1433;49.976;8.342;2023-05-19T05:49:10;10.60;1.00
2851;DHT22;1433;49.976;8.342;2023-05-19T05:51:39;10.70;99.90
2851;DHT22;1433;49.976;8.342;2023-05-19T05:54:09;10.90;99.90
2851;DHT22;1433;49.976;8.342;2023-05-19T05:56:39;10.90;99.90
2851;DHT22;1433;49.976;8.342;2023-05-19T05:59:07;11.10;1.00
2851;DHT22;1433;49.976;8.342;2023-05-19T06:01:33;11.20;1.00
2851;DHT22;1433;49.976;8.342;2023-05-19T06:04:01;11.30;99.90
2851;DHT22;1433;49.976;8.342;2023-05-19T06:06:29;11.30;99.90
2851;DHT22;1433;49.976;8.342;2023-05-19T06:08:56;11.60;99.90
2851;DHT22;1433;49.976;8.342;2023-05-19T06:11:23;11.70;94.90
2851;DHT22;1433;49.976;8.342;2023-05-19T06:13:50;11.80;99.90
2851;DHT22;1433;49.976;8.342;2023-05-19T06:16:18;11.90;1.00
2851;DHT22;1433;49.976;8.342;2023-05-19T06:18:46;12.00;99.90
2851;DHT22;1433;49.976;8.342;2023-05-19T06:21:12;12.00;99.90
2851;DHT22;1433;49.976;8.342;2023-05-19T06:23:39;12.10;28.60
2851;DHT22;1433;49.976;8.342;2023-05-19T06:26:07;12.20;1.00
2851;DHT22;1433;49.976;8.342;2023-05-19T06:28:33;12.20;1.00
2851;DHT22;1433;49.976;8.342;2023-05-19T06:30:59;12.30;1.00
2851;DHT22;1433;49.976;8.342;2023-05-19T06:33:31;12.40;1.00
2851;DHT22;1433;49.976;8.342;2023-05-19T06:35:57;12.50;1.00
2851;DHT22;1433;49.976;8.342;2023-05-19T06:38:23;12.60;99.90
2851;DHT22;1433;49.976;8.342;2023-05-19T06:40:50;12.70;99.90
2851;DHT22;1433;49.976;8.342;2023-05-19T06:43:16;12.70;99.90
2851;DHT22;1433;49.976;8.342;2023-05-19T06:45:47;12.70;1.00
2851;DHT22;1433;49.976;8.342;2023-05-19T06:48:13;12.70;1.00
2851;DHT22;1433;49.976;8.342;2023-05-19T06:50:40;12.80;1.00
2851;DHT22;1433;49.976;8.342;2023-05-19T06:53:06;12.90;25.70
2851;DHT22;1433;49.976;8.342;2023-05-19T06:55:32;13.00;99.90
2851;DHT22;1433;49.976;8.342;2023-05-19T06:57:59;13.10;66.80
2851;DHT22;1433;49.976;8.342;2023-05-19T07:00:25;13.20;1.00
2851;DHT22;1433;49.976;8.342;2023-05-19T07:02:52;13.30;1.00
2851;DHT22;1433;49.976;8.342;2023-05-19T07:05:18;13.50;1.00
2851;DHT22;1433;49.976;8.342;2023-05-19T07:07:47;13.50;99.90
2851;DHT22;1433;49.976;8.342;2023-05-19T07:10:14;13.50;1.00
2851;DHT22;1433;49.976;8.342;2023-05-19T07:12:41;13.60;1.00
2851;DHT22;1433;49.976;8.342;2023-05-19T07:15:08;13.70;12.30
2851;DHT22;1433;49.976;8.342;2023-05-19T07:17:35;13.80;1.00
2851;DHT22;1433;49.976;8.342;2023-05-19T07:20:01;13.80;1.00
2851;DHT22;1433;49.976;8.342;2023-05-19T07:22:29;13.90;1.00
2851;DHT22;1433;49.976;8.342;2023-05-19T07:24:55;14.00;13.50
2851;DHT22;1433;49.976;8.342;2023-05-19T07:27:22;14.10;1.00
2851;DHT22;1433;49.976;8.342;2023-05-19T07:29:48;14.10;1.00
2851;DHT22;1433;49.976;8.342;2023-05-19T07:32:14;14.10;1.00
2851;DHT22;1433;49.976;8.342;2023-05-19T07:34:40;14.20;1.00
2851;DHT22;1433;49.976;8.342;2023-05-19T07:37:07;14.30;1.00
2851;DHT22;1433;49.976;8.342;2023-05-19T07:39:34;14.30;1.00
2851;DHT22;1433;49.976;8.342;2023-05-19T07:42:00;14.40;1.00
2851;DHT22;1433;49.976;8.342;2023-05-19T07:44:27;14.50;1.00
2851;DHT22;1433;49.976;8.342;2023-05-19T07:46:56;14.60;1.00
2851;DHT22;1433;49.976;8.342;2023-05-19T07:49:22;14.70;1.00
2851;DHT22;1433;49.976;8.342;2023-05-19T07:51:48;14.70;1.00
2851;DHT22;1433;49.976;8.342;2023-05-19T07:54:14;14.90;1.00
2851;DHT22;1433;49.976;8.342;2023-05-19T07:56:40;15.00;1.00
2851;DHT22;1433;49.976;8.342;2023-05-19T07:59:07;15.00;1.00
2851;DHT22;1433;49.976;8.342;2023-05-19T08:01:33;14.90;1.00
2851;DHT22;1433;49.976;8.342;2023-05-19T08:03:59;15.10;1.00
2851;DHT22;1433;49.976;8.342;2023-05-19T08:06:25;15.10;1.00
2851;DHT22;1433;49.976;8.342;2023-05-19T08:08:53;15.00;1.00
2851;DHT22;1433;49.976;8.342;2023-05-19T08:11:19;15.10;1.00
2851;DHT22;1433;49.976;8.342;2023-05-19T08:13:47;15.30;1.00
2851;DHT22;1433;49.976;8.342;2023-05-19T08:16:14;15.40;1.00
2851;DHT22;1433;49.976;8.342;2023-05-19T08:18:41;15.50;1.00
2851;DHT22;1433;49.976;8.342;2023-05-19T08:21:07;15.50;1.00
2851;DHT22;1433;49.976;8.342;2023-05-19T08:23:33;15.70;1.00
2851;DHT22;1433;49.976;8.342;2023-05-19T08:25:59;15.70;1.00
2851;DHT22;1433;49.976;8.342;2023-05-19T08:28:27;15.70;1.00
2851;DHT22;1433;49.976;8.342;2023-05-19T08:30:53;15.90;1.00
2851;DHT22;1433;49.976;8.342;2023-05-19T08:33:20;16.00;1.00
2851;DHT22;1433;49.976;8.342;2023-05-19T08:35:46;16.00;1.00
2851;DHT22;1433;49.976;8.342;2023-05-19T08:38:12;16.10;1.00
2851;DHT22;1433;49.976;8.342;2023-05-19T08:40:45;16.20;1.00
2851;DHT22;1433;49.976;8.342;2023-05-19T08:43:11;16.30;1.00
2851;DHT22;1433;49.976;8.342;2023-05-19T08:45:42;16.30;1.00
2851;DHT22;1433;49.976;8.342;2023-05-19T08:48:08;16.40;1.00
2851;DHT22;1433;49.976;8.342;2023-05-19T08:50:38;16.50;1.00
2851;DHT22;1433;49.976;8.342;2023-05-19T08:53:13;16.40;1.00
2851;DHT22;1433;49.976;8.342;2023-05-19T08:56:00;16.40;1.00
2851;DHT22;1433;49.976;8.342;2023-05-19T08:58:29;16.60;1.00
2851;DHT22;1433;49.976;8.342;2023-05-19T09:00:56;16.80;1.00
2851;DHT22;1433;49.976;8.342;2023-05-19T09:03:24;16.70;1.00
2851;DHT22;1433;49.976;8.342;2023-05-19T09:05:51;16.80;1.00
2851;DHT22;1433;49.976;8.342;2023-05-19T09:08:17;17.00;1.00
2851;DHT22;1433;49.976;8.342;2023-05-19T09:10:43;17.10;1.00
2851;DHT22;1433;49.976;8.342;2023-05-19T09:13:09;17.30;1.00
2851;DHT22;1433;49.976;8.342;2023-05-19T09:15:37;17.40;1.00
2851;DHT22;1433;49.976;8.342;2023-05-19T09:18:11;17.50;99.90
2851;DHT22;1433;49.976;8.342;2023-05-19T09:20:40;17.70;1.00
2851;DHT22;1433;49.976;8.342;2023-05-19T09:23:11;17.80;99.90
2851;DHT22;1433;49.976;8.342;2023-05-19T09:25:35;17.80;1.00
2851;DHT22;1433;49.976;8.342;2023-05-19T09:28:01;17.80;99.90
2851;DHT22;1433;49.976;8.342;2023-05-19T09:30:28;17.90;1.00
2851;DHT22;1433;49.976;8.342;2023-05-19T09:32:54;18.30;99.90
2851;DHT22;1433;49.976;8.342;2023-05-19T09:35:20;18.60;99.90
2851;DHT22;1433;49.976;8.342;2023-05-19T09:37:46;19.00;99.90
2851;DHT22;1433;49.976;8.342;2023-05-19T09:40:14;19.30;99.90
2851;DHT22;1433;49.976;8.342;2023-05-19T09:42:41;19.90;1.00
2851;DHT22;1433;49.976;8.342;2023-05-19T09:45:09;20.30;1.00
2851;DHT22;1433;49.976;8.342;2023-05-19T09:47:38;20.40;99.90
2851;DHT22;1433;49.976;8.342;2023-05-19T09:50:06;20.20;1.00
2851;DHT22;1433;49.976;8.342;2023-05-19T09:52:35;20.30;1.00
2851;DHT22;1433;49.976;8.342;2023-05-19T09:55:04;20.30;1.00
2851;DHT22;1433;49.976;8.342;2023-05-19T09:57:35;20.30;1.00
2851;DHT22;1433;49.976;8.342;2023-05-19T10:00:07;20.50;1.00
2851;DHT22;1433;49.976;8.342;2023-05-19T10:02:35;20.60;3.70
2851;DHT22;1433;49.976;8.342;2023-05-19T10:05:02;20.80;53.00
2851;DHT22;1433;49.976;8.342;2023-05-19T10:07:30;20.50;5.20
2851;DHT22;1433;49.976;8.342;2023-05-19T10:09:57;20.50;1.00
2851;DHT22;1433;49.976;8.342;2023-05-19T10:12:25;20.30;1.00
2851;DHT22;1433;49.976;8.342;2023-05-19T10:14:53;20.20;1.00
2851;DHT22;1433;49.976;8.342;2023-05-19T10:17:20;20.30;1.00
2851;DHT22;1433;49.976;8.342;2023-05-19T10:19:49;20.60;99.90
2851;DHT22;1433;49.976;8.342;2023-05-19T10:22:18;21.10;99.90
2851;DHT22;1433;49.976;8.342;2023-05-19T10:24:45;21.40;1.00
2851;DHT22;1433;49.976;8.342;2023-05-19T10:27:12;21.80;1.00
2851;DHT22;1433;49.976;8.342;2023-05-19T10:29:43;22.30;99.70
2851;DHT22;1433;49.976;8.342;2023-05-19T10:32:15;22.70;99.90
2851;DHT22;1433;49.976;8.342;2023-05-19T10:38:04;23.30;99.90
2851;DHT22;1433;49.976;8.342;2023-05-19T10:40:32;23.80;99.90
2851;DHT22;1433;49.976;8.342;2023-05-19T10:45:35;25.10;1.00
2851;DHT22;1433;49.976;8.342;2023-05-19T10:48:02;25.90;1.00
2851;DHT22;1433;49.976;8.342;2023-05-19T10:50:36;26.20;1.00
2851;DHT22;1433;49.976;8.342;2023-05-19T10:53:03;26.10;1.00
2851;DHT22;1433;49.976;8.342;2023-05-19T10:55:50;26.50;1.00
2851;DHT22;1433;49.976;8.342;2023-05-19T11:01:11;26.80;1.00
2851;DHT22;1433;49.976;8.342;2023-05-19T11:06:25;27.00;1.00
2851;DHT22;1433;49.976;8.342;2023-05-19T11:11:47;28.00;99.90
2851;DHT22;1433;49.976;8.342;2023-05-19T11:14:25;27.80;49.00
2851;DHT22;1433;49.976;8.342;2023-05-19T11:16:57;28.40;99.90
2851;DHT22;1433;49.976;8.342;2023-05-19T11:19:33;28.10;99.90
2851;DHT22;1433;49.976;8.342;2023-05-19T11:24:42;27.30;99.90
2851;DHT22;1433;49.976;8.342;2023-05-19T11:27:24;26.70;52.60
2851;DHT22;1433;49.976;8.342;2023-05-19T11:29:52;27.00;99.90
2851;DHT22;1433;49.976;8.342;2023-05-19T11:32:31;26.40;1.00
2851;DHT22;1433;49.976;8.342;2023-05-19T11:34:59;26.60;1.00
2851;DHT22;1433;49.976;8.342;2023-05-19T11:37:26;26.90;99.90
2851;DHT22;1433;49.976;8.342;2023-05-19T11:39:53;26.00;1.00
2851;DHT22;1433;49.976;8.342;2023-05-19T11:42:20;25.70;1.00
2851;DHT22;1433;49.976;8.342;2023-05-19T11:44:46;26.40;1.00
2851;DHT22;1433;49.976;8.342;2023-05-19T11:47:13;26.90;1.00
2851;DHT22;1433;49.976;8.342;2023-05-19T11:49:50;27.40;1.00
2851;DHT22;1433;49.976;8.342;2023-05-19T11:52:23;28.00;99.90
2851;DHT22;1433;49.976;8.342;2023-05-19T11:54:50;29.60;1.00
2851;DHT22;1433;49.976;8.342;2023-05-19T11:57:17;30.10;99.90
2851;DHT22;1433;49.976;8.342;2023-05-19T11:59:43;29.90;99.90
2851;DHT22;1433;49.976;8.342;2023-05-19T12:04:45;28.70;99.90
2851;DHT22;1433;49.976;8.342;2023-05-19T12:07:11;28.40;99.90
2851;DHT22;1433;49.976;8.342;2023-05-19T12:09:40;27.80;1.00
2851;DHT22;1433;49.976;8.342;2023-05-19T12:12:08;27.50;99.90
2851;DHT22;1433;49.976;8.342;2023-05-19T12:14:36;27.50;1.00
2851;DHT22;1433;49.976;8.342;2023-05-19T12:17:16;27.10;1.00
2851;DHT22;1433;49.976;8.342;2023-05-19T12:19:43;27.20;99.90
2851;DHT22;1433;49.976;8.342;2023-05-19T12:22:10;27.70;1.00
2851;DHT22;1433;49.976;8.342;2023-05-19T12:24:38;28.20;1.00
2851;DHT22;1433;49.976;8.342;2023-05-19T12:27:12;27.60;1.00
2851;DHT22;1433;49.976;8.342;2023-05-19T12:29:39;27.60;1.00
2851;DHT22;1433;49.976;8.342;2023-05-19T12:32:08;27.60;1.00
2851;DHT22;1433;49.976;8.342;2023-05-19T12:34:36;27.30;99.90
2851;DHT22;1433;49.976;8.342;2023-05-19T12:37:03;26.70;64.00
2851;DHT22;1433;49.976;8.342;2023-05-19T12:39:30;26.80;1.00
2851;DHT22;1433;49.976;8.342;2023-05-19T12:42:06;27.20;99.90
2851;DHT22;1433;49.976;8.342;2023-05-19T12:44:29;26.80;1.00
2851;DHT22;1433;49.976;8.342;2023-05-19T12:46:57;27.10;99.90
2851;DHT22;1433;49.976;8.342;2023-05-19T12:49:24;27.70;1.00
2851;DHT22;1433;49.976;8.342;2023-05-19T12:51:53;28.70;99.90
2851;DHT22;1433;49.976;8.342;2023-05-19T12:54:20;28.80;99.90
2851;DHT22;1433;49.976;8.342;2023-05-19T12:56:50;28.10;1.00
2851;DHT22;1433;49.976;8.342;2023-05-19T12:59:25;27.70;99.90
2851;DHT22;1433;49.976;8.342;2023-05-19T13:01:57;27.20;99.90
2851;DHT22;1433;49.976;8.342;2023-05-19T13:04:24;27.20;99.90
2851;DHT22;1433;49.976;8.342;2023-05-19T13:06:51;27.70;1.00
2851;DHT22;1433;49.976;8.342;2023-05-19T13:09:19;28.40;99.90
2851;DHT22;1433;49.976;8.342;2023-05-19T13:11:46;28.30;99.90
2851;DHT22;1433;49.976;8.342;2023-05-19T13:14:16;28.00;99.90
2851;DHT22;1433;49.976;8.342;2023-05-19T13:16:45;28.20;99.90
2851;DHT22;1433;49.976;8.342;2023-05-19T13:19:14;28.60;1.00
2851;DHT22;1433;49.976;8.342;2023-05-19T13:21:40;27.70;99.90
2851;DHT22;1433;49.976;8.342;2023-05-19T13:24:07;26.60;1.00
2851;DHT22;1433;49.976;8.342;2023-05-19T13:26:33;26.40;1.00
2851;DHT22;1433;49.976;8.342;2023-05-19T13:29:00;26.10;99.90
2851;DHT22;1433;49.976;8.342;2023-05-19T13:31:27;25.70;99.90
2851;DHT22;1433;49.976;8.342;2023-05-19T13:33:53;25.30;99.90
2851;DHT22;1433;49.976;8.342;2023-05-19T13:36:19;25.10;1.00
2851;DHT22;1433;49.976;8.342;2023-05-19T13:38:45;24.70;1.00
2851;DHT22;1433;49.976;8.342;2023-05-19T13:41:11;25.10;1.00
2851;DHT22;1433;49.976;8.342;2023-05-19T13:43:39;25.20;1.00
2851;DHT22;1433;49.976;8.342;2023-05-19T13:46:05;25.10;1.00
2851;DHT22;1433;49.976;8.342;2023-05-19T13:48:31;25.30;1.00
2851;DHT22;1433;49.976;8.342;2023-05-19T13:50:57;24.80;1.00
2851;DHT22;1433;49.976;8.342;2023-05-19T13:53:24;24.20;99.90
2851;DHT22;1433;49.976;8.342;2023-05-19T13:55:51;24.40;1.00
2851;DHT22;1433;49.976;8.342;2023-05-19T13:58:19;24.70;99.90
2851;DHT22;1433;49.976;8.342;2023-05-19T14:00:45;25.60;36.00
2851;DHT22;1433;49.976;8.342;2023-05-19T14:03:11;26.80;99.90
2851;DHT22;1433;49.976;8.342;2023-05-19T14:05:40;27.20;99.90
2851;DHT22;1433;49.976;8.342;2023-05-19T14:08:06;27.20;23.70
2851;DHT22;1433;49.976;8.342;2023-05-19T14:10:32;27.00;1.00
2851;DHT22;1433;49.976;8.342;2023-05-19T14:12:58;26.70;1.00
2851;DHT22;1433;49.976;8.342;2023-05-19T14:15:25;26.10;99.90
2851;DHT22;1433;49.976;8.342;2023-05-19T14:17:52;25.20;1.00
2851;DHT22;1433;49.976;8.342;2023-05-19T14:20:18;23.90;1.00
2851;DHT22;1433;49.976;8.342;2023-05-19T14:22:46;23.30;1.00
2851;DHT22;1433;49.976;8.342;2023-05-19T14:25:12;23.20;1.00
2851;DHT22;1433;49.976;8.342;2023-05-19T14:27:38;22.80;1.00
2851;DHT22;1433;49.976;8.342;2023-05-19T14:30:07;22.50;1.00
2851;DHT22;1433;49.976;8.342;2023-05-19T14:32:36;22.40;1.00
2851;DHT22;1433;49.976;8.342;2023-05-19T14:35:02;22.20;1.00
2851;DHT22;1433;49.976;8.342;2023-05-19T14:37:28;22.00;1.00
2851;DHT22;1433;49.976;8.342;2023-05-19T14:39:57;22.20;1.00
2851;DHT22;1433;49.976;8.342;2023-05-19T14:42:23;22.30;1.00
2851;DHT22;1433;49.976;8.342;2023-05-19T14:44:50;22.50;1.00
2851;DHT22;1433;49.976;8.342;2023-05-19T14:47:16;22.80;1.00
2851;DHT22;1433;49.976;8.342;2023-05-19T14:49:42;22.90;99.90
2851;DHT22;1433;49.976;8.342;2023-05-19T14:52:08;23.10;1.00
2851;DHT22;1433;49.976;8.342;2023-05-19T14:54:34;23.10;1.00
2851;DHT22;1433;49.976;8.342;2023-05-19T14:57:00;23.30;1.00
2851;DHT22;1433;49.976;8.342;2023-05-19T14:59:26;23.50;1.00
2851;DHT22;1433;49.976;8.342;2023-05-19T15:01:54;23.70;6.40
2851;DHT22;1433;49.976;8.342;2023-05-19T15:04:20;23.70;92.10
2851;DHT22;1433;49.976;8.342;2023-05-19T15:06:47;23.50;90.70
2851;DHT22;1433;49.976;8.342;2023-05-19T15:09:13;23.30;1.00
2851;DHT22;1433;49.976;8.342;2023-05-19T15:11:39;23.10;1.00
2851;DHT22;1433;49.976;8.342;2023-05-19T15:14:05;22.70;1.00
2851;DHT22;1433;49.976;8.342;2023-05-19T15:16:32;22.60;1.00
2851;DHT22;1433;49.976;8.342;2023-05-19T15:18:58;22.40;1.00
2851;DHT22;1433;49.976;8.342;2023-05-19T15:21:24;22.30;1.00
2851;DHT22;1433;49.976;8.342;2023-05-19T15:23:50;22.10;1.00
2851;DHT22;1433;49.976;8.342;2023-05-19T15:26:16;21.90;1.00
2851;DHT22;1433;49.976;8.342;2023-05-19T15:28:48;21.80;1.00
2851;DHT22;1433;49.976;8.342;2023-05-19T15:31:14;21.70;99.90
2851;DHT22;1433;49.976;8.342;2023-05-19T15:33:41;21.60;1.00
2851;DHT22;1433;49.976;8.342;2023-05-19T15:36:07;21.60;1.00
2851;DHT22;1433;49.976;8.342;2023-05-19T15:38:36;21.70;54.30
2851;DHT22;1433;49.976;8.342;2023-05-19T15:41:04;21.80;13.90
2851;DHT22;1433;49.976;8.342;2023-05-19T15:43:31;21.70;1.00
2851;DHT22;1433;49.976;8.342;2023-05-19T15:45:57;21.60;1.00
2851;DHT22;1433;49.976;8.342;2023-05-19T15:48:23;21.40;1.00
2851;DHT22;1433;49.976;8.342;2023-05-19T15:50:51;21.30;1.00
2851;DHT22;1433;49.976;8.342;2023-05-19T15:53:17;21.10;1.00
2851;DHT22;1433;49.976;8.342;2023-05-19T15:55:45;20.90;69.40
2851;DHT22;1433;49.976;8.342;2023-05-19T15:58:11;20.80;1.00
2851;DHT22;1433;49.976;8.342;2023-05-19T16:00:38;20.60;1.00
2851;DHT22;1433;49.976;8.342;2023-05-19T16:03:04;20.60;1.00
2851;DHT22;1433;49.976;8.342;2023-05-19T16:05:30;20.40;1.00
2851;DHT22;1433;49.976;8.342;2023-05-19T16:07:57;20.30;1.00
2851;DHT22;1433;49.976;8.342;2023-05-19T16:10:23;20.30;1.00
2851;DHT22;1433;49.976;8.342;2023-05-19T16:12:49;20.10;82.00
2851;DHT22;1433;49.976;8.342;2023-05-19T16:15:16;20.00;1.00
2851;DHT22;1433;49.976;8.342;2023-05-19T16:17:42;20.00;1.00
2851;DHT22;1433;49.976;8.342;2023-05-19T16:20:09;20.00;1.00
2851;DHT22;1433;49.976;8.342;2023-05-19T16:22:36;20.00;1.00
2851;DHT22;1433;49.976;8.342;2023-05-19T16:25:02;19.90;99.90
2851;DHT22;1433;49.976;8.342;2023-05-19T16:27:29;19.90;99.90
2851;DHT22;1433;49.976;8.342;2023-05-19T16:29:55;19.90;1.00
2851;DHT22;1433;49.976;8.342;2023-05-19T16:32:21;20.00;1.00
2851;DHT22;1433;49.976;8.342;2023-05-19T16:34:47;20.00;99.90
2851;DHT22;1433;49.976;8.342;2023-05-19T16:37:13;20.00;99.90
2851;DHT22;1433;49.976;8.342;2023-05-19T16:39:39;20.00;99.90
2851;DHT22;1433;49.976;8.342;2023-05-19T16:42:08;19.90;99.90
2851;DHT22;1433;49.976;8.342;2023-05-19T16:44:34;20.00;99.90
2851;DHT22;1433;49.976;8.342;2023-05-19T16:47:00;19.90;99.90
2851;DHT22;1433;49.976;8.342;2023-05-19T16:49:26;19.90;99.90
2851;DHT22;1433;49.976;8.342;2023-05-19T16:51:53;19.90;99.90